Time;durP1;ratioP1;P1;durP2;ratioP2;P2;SDS_P1;SDS_P2;PMS_P1;PMS_P2;Temp;Humidity;BMP_temperature;BMP_pressure;BME280_temperature;BME280_humidity;BME280_pressure;Samples;Min_cycle;Max_cycle;Signal;HPM_P1;HPM_P2
2024/03/06 00:00:33;;;;;;;0.25;0.25;;;;;;;9.90;100.00;74841.84;5113768;27;20038;-87
2024/03/06 00:03:12;;;;;;;0.20;0.20;;;;;;;10.08;100.00;74864.94;5141211;27;20023;-87
2024/03/06 00:05:41;;;;;;;0.20;0.20;;;;;;;9.87;100.00;74840.44;5140651;27;20090;-87
2024/03/06 00:08:23;;;;;;;0.30;0.30;;;;;;;10.06;100.00;74859.75;5131199;28;20040;-86
2024/03/06 00:11:07;;;;;;;0.20;0.20;;;;;;;10.10;100.00;74861.78;5129192;27;20056;-87
2024/03/06 00:13:56;;;;;;;0.20;0.20;;;;;;;9.88;100.00;74842.22;5139504;27;20031;-86
2024/03/06 00:16:50;;;;;;;0.20;0.20;;;;;;;9.51;100.00;74795.28;5122278;27;20027;-87
2024/03/06 00:19:23;;;;;;;0.20;0.20;;;;;;;9.44;100.00;74788.13;5091799;27;20301;-87
2024/03/06 00:22:18;;;;;;;0.20;0.20;;;;;;;9.67;100.00;74817.16;5159305;27;20131;-87
2024/03/06 00:25:08;;;;;;;0.20;0.20;;;;;;;9.85;100.00;74835.28;5123953;28;20032;-87
2024/03/06 00:27:51;;;;;;;0.30;0.30;;;;;;;9.80;100.00;74832.69;5097156;28;20043;-87
2024/03/06 00:30:44;;;;;;;0.20;0.20;;;;;;;9.83;100.00;74839.03;5100709;28;20028;-87
2024/03/06 00:33:18;;;;;;;0.20;0.20;;;;;;;9.73;100.00;74820.97;5101634;28;20036;-86
2024/03/06 00:35:48;;;;;;;0.20;0.20;;;;;;;9.63;100.00;74812.38;5100267;28;20008;-87
2024/03/06 00:38:16;;;;;;;0.20;0.20;;;;;;;9.73;100.00;74821.56;5117331;28;20032;-87
2024/03/06 00:41:06;;;;;;;0.20;0.20;;;;;;;9.80;100.00;74829.94;5125647;28;20028;-87
2024/03/06 00:43:38;;;;;;;0.20;0.20;;;;;;;9.58;100.00;74804.25;5121180;28;20032;-86
2024/03/06 00:46:10;;;;;;;0.28;0.28;;;;;;;9.37;100.00;74779.16;5102967;28;20036;-87
2024/03/06 00:48:43;;;;;;;0.20;0.20;;;;;;;9.47;100.00;74793.88;5090259;28;20032;-87
2024/03/06 00:51:37;;;;;;;0.20;0.20;;;;;;;9.42;100.00;74791.25;5084330;28;20032;-87
2024/03/06 00:54:10;;;;;;;;;;;;;;;9.70;100.00;74818.56;5118587;28;20028;-87
2024/03/06 00:56:57;;;;;;;0.20;0.20;;;;;;;9.53;100.00;74801.03;5117470;28;19919;-87
2024/03/06 00:59:38;;;;;;;0.20;0.20;;;;;;;9.60;100.00;74806.03;5115257;28;20042;-87
2024/03/06 01:02:11;;;;;;;0.30;0.30;;;;;;;9.36;100.00;74775.22;5098753;28;20028;-86
2024/03/06 01:04:59;;;;;;;0.30;0.30;;;;;;;9.55;100.00;74800.06;5100432;28;20035;-86
2024/03/06 01:07:50;;;;;;;0.20;0.20;;;;;;;9.58;100.00;74806.41;5114667;28;20134;-87
2024/03/06 01:10:27;;;;;;;0.20;0.20;;;;;;;9.51;100.00;74798.66;5098820;28;20028;-86
2024/03/06 01:14:05;;;;;;;0.20;0.20;;;;;;;9.42;100.00;74791.25;5081166;28;20016;-86
2024/03/06 01:16:55;;;;;;;0.30;0.30;;;;;;;9.34;100.00;74776.19;5091760;28;20036;-87
2024/03/06 01:20:23;;;;;;;0.20;0.20;;;;;;;9.33;100.00;74777.75;5111254;28;20048;-86
2024/03/06 01:23:26;;;;;;;0.20;0.20;;;;;;;9.30;100.00;74776.34;5068020;28;20112;-87
2024/03/06 01:26:07;;;;;;;0.20;0.20;;;;;;;9.03;100.00;74736.44;5095405;28;20012;-87
2024/03/06 01:28:41;;;;;;;0.20;0.20;;;;;;;9.33;100.00;74777.16;5096428;28;20066;-86
2024/03/06 01:31:46;;;;;;;0.30;0.30;;;;;;;9.13;100.00;74754.47;5096983;28;20024;-86
2024/03/06 01:34:32;;;;;;;0.20;0.20;;;;;;;9.29;100.00;74772.38;5115398;28;20048;-87
2024/03/06 01:37:30;;;;;;;0.30;0.30;;;;;;;9.11;100.00;74751.50;5118963;28;20036;-87
2024/03/06 01:40:17;;;;;;;0.30;0.30;;;;;;;9.22;100.00;74767.41;5085791;28;20023;-87
2024/03/06 01:43:32;;;;;;;0.20;0.20;;;;;;;9.23;100.00;74765.81;5115775;28;20107;-87
2024/03/06 01:46:11;;;;;;;0.20;0.20;;;;;;;9.35;100.00;74780.16;5084108;28;20076;-87
2024/03/06 01:49:31;;;;;;;0.20;0.20;;;;;;;9.00;100.00;74735.59;5115314;28;20024;-86
2024/03/06 01:52:45;;;;;;;0.20;0.20;;;;;;;9.32;100.00;74778.72;5109520;28;20028;-86
2024/03/06 01:55:19;;;;;;;0.20;0.20;;;;;;;9.06;100.00;74746.13;5075693;28;20037;-87
2024/03/06 01:58:24;;;;;;;0.20;0.20;;;;;;;9.10;100.00;74742.03;5074529;28;20091;-87
2024/03/06 02:01:10;;;;;;;0.22;0.22;;;;;;;9.33;100.00;74775.00;5075854;28;20051;-86
2024/03/06 02:04:22;;;;;;;0.20;0.20;;;;;;;9.37;100.00;74782.53;5085499;28;20036;-87
2024/03/06 02:07:25;;;;;;;0.20;0.20;;;;;;;9.29;100.00;74769.63;5071593;28;20020;-86
2024/03/06 02:10:37;;;;;;;0.25;0.25;;;;;;;9.20;100.00;74759.47;5079708;28;20036;-87
2024/03/06 02:13:59;;;;;;;0.20;0.20;;;;;;;9.19;100.00;74761.03;5091526;28;20017;-87
2024/03/06 02:17:14;;;;;;;0.20;0.20;;;;;;;9.46;100.00;74789.91;5095919;28;20032;-86
2024/03/06 02:20:50;;;;;;;0.20;0.20;;;;;;;9.16;100.00;74760.22;5116349;28;20039;-86
2024/03/06 02:23:20;;;;;;;0.30;0.30;;;;;;;9.19;100.00;74758.28;5113054;28;20044;-86
2024/03/06 02:26:22;;;;;;;0.20;0.20;;;;;;;9.64;100.00;74811.41;5123366;28;20036;-87
2024/03/06 02:28:58;;;;;;;0.20;0.20;;;;;;;9.55;100.00;74800.06;5132281;28;20043;-86
2024/03/06 02:31:29;;;;;;;0.20;0.20;;;;;;;9.53;100.00;74798.28;5131449;27;20034;-87
2024/03/06 02:34:18;;;;;;;0.20;0.20;;;;;;;9.76;100.00;74824.56;5139615;27;20027;-86
2024/03/06 02:36:58;;;;;;;0.20;0.20;;;;;;;9.48;100.00;74789.56;5116270;27;20098;-87
2024/03/06 02:39:27;;;;;;;0.30;0.30;;;;;;;9.73;100.00;74821.56;5141199;27;20032;-86
2024/03/06 02:42:04;;;;;;;0.20;0.20;;;;;;;9.42;100.00;74785.13;5117712;28;20014;-86
2024/03/06 02:44:39;;;;;;;0.20;0.20;;;;;;;9.41;100.00;74790.06;5097276;28;20008;-86
2024/03/06 02:47:20;;;;;;;0.20;0.20;;;;;;;9.75;100.00;74823.34;5094344;28;20419;-86
2024/03/06 02:50:04;;;;;;;0.20;0.20;;;;;;;9.61;100.00;74807.22;5117106;28;20031;-86
2024/03/06 02:52:36;;;;;;;0.20;0.20;;;;;;;9.70;100.00;74821.34;5121950;28;20042;-87
2024/03/06 02:55:10;;;;;;;0.20;0.20;;;;;;;9.61;100.00;74807.22;5116915;28;20050;-87
2024/03/06 02:57:40;;;;;;;0.30;0.30;;;;;;;9.52;100.00;74802.59;5117230;28;20008;-87
2024/03/06 03:00:26;;;;;;;0.20;0.20;;;;;;;9.66;100.00;74813.81;5116821;28;20040;-87
2024/03/06 03:03:06;;;;;;;0.30;0.30;;;;;;;9.65;100.00;74812.00;5117499;28;20043;-87
2024/03/06 03:05:43;;;;;;;0.20;0.20;;;;;;;9.43;100.00;74786.94;5131633;28;20031;-86
2024/03/06 03:08:13;;;;;;;0.30;0.30;;;;;;;9.47;100.00;74791.09;5114796;28;20099;-87
2024/03/06 03:11:01;;;;;;;0.20;0.20;;;;;;;9.81;100.00;74833.88;5155166;28;20030;-85
2024/03/06 03:14:06;;;;;;;0.20;0.20;;;;;;;9.90;100.00;74841.84;5118510;28;20030;-87
2024/03/06 03:16:35;;;;;;;0.20;0.20;;;;;;;9.76;100.00;74825.16;5112759;28;20043;-87
2024/03/06 03:19:26;;;;;;;0.20;0.20;;;;;;;9.57;100.00;74802.44;5114775;28;20066;-87
2024/03/06 03:21:55;;;;;;;0.20;0.20;;;;;;;9.76;100.00;74824.56;5096663;28;20028;-87
2024/03/06 03:24:44;;;;;;;0.20;0.20;;;;;;;9.64;100.00;74813.56;5083033;28;20040;-86
2024/03/06 03:27:12;;;;;;;0.20;0.20;;;;;;;9.56;100.00;74801.84;5095549;28;20104;-87
2024/03/06 03:29:39;;;;;;;0.20;0.20;;;;;;;9.79;100.00;74825.94;5095449;28;20043;-86
2024/03/06 03:32:26;;;;;;;0.20;0.20;;;;;;;9.85;100.00;74841.41;5081399;28;20017;-86
2024/03/06 03:35:27;;;;;;;0.28;0.28;;;;;;;9.92;100.00;74844.25;5100211;28;20020;-87
2024/03/06 03:38:18;;;;;;;0.20;0.20;;;;;;;9.67;100.00;74815.00;5118506;28;20061;-87
2024/03/06 03:41:13;;;;;;;0.20;0.20;;;;;;;9.81;100.00;74830.53;5100141;28;20050;-86
2024/03/06 03:43:42;;;;;;;0.20;0.20;;;;;;;9.59;100.00;74804.84;5118267;28;20074;-86
2024/03/06 03:46:14;;;;;;;0.20;0.20;;;;;;;9.62;100.00;74811.19;5084953;28;20028;-87
2024/03/06 03:49:20;;;;;;;0.20;0.20;;;;;;;9.74;100.00;74822.75;5119461;28;20092;-87
2024/03/06 03:52:08;;;;;;;0.20;0.20;;;;;;;9.74;100.00;74824.91;5119488;28;20270;-88
2024/03/06 03:55:26;;;;;;;0.20;0.20;;;;;;;9.91;100.00;74843.06;5084519;28;20088;-87
2024/03/06 03:58:14;;;;;;;0.20;0.20;;;;;;;9.78;100.00;74833.03;5119802;28;20036;-87
2024/03/06 04:01:00;;;;;;;0.20;0.20;;;;;;;9.87;100.00;74837.69;5119200;28;20028;-85
2024/03/06 04:03:44;;;;;;;0.30;0.30;;;;;;;9.58;100.00;74807.00;5102145;28;20028;-87
2024/03/06 04:06:10;;;;;;;0.20;0.20;;;;;;;9.61;100.00;74807.22;5100857;28;20039;-87
2024/03/06 04:08:50;;;;;;;0.20;0.20;;;;;;;9.59;100.00;74804.84;5101018;28;20035;-87
2024/03/06 04:11:20;;;;;;;0.20;0.20;;;;;;;9.60;100.00;74809.41;5100503;28;20093;-87
2024/03/06 04:13:56;;;;;;;0.20;0.20;;;;;;;9.74;100.00;74822.75;5114611;28;20043;-87
2024/03/06 04:16:21;;;;;;;0.20;0.20;;;;;;;9.60;100.00;74814.31;5104634;28;20031;-87
2024/03/06 04:19:12;;;;;;;0.20;0.20;;;;;;;9.79;100.00;74828.72;5116194;28;20040;-88
2024/03/06 04:21:50;;;;;;;0.30;0.30;;;;;;;9.52;100.00;74796.47;5119131;28;20039;-87
2024/03/06 04:24:27;;;;;;;0.30;0.30;;;;;;;9.76;100.00;74824.56;5138454;28;20031;-87
2024/03/06 04:27:22;;;;;;;0.20;0.20;;;;;;;9.59;100.00;74804.84;5138472;28;20033;-86
2024/03/06 04:29:59;;;;;;;0.30;0.30;;;;;;;9.63;100.00;74810.22;5138672;28;20026;-88
2024/03/06 04:32:26;;;;;;;0.30;0.30;;;;;;;9.74;100.00;74825.50;5115809;28;20028;-87
2024/03/06 04:35:03;;;;;;;0.20;0.20;;;;;;;9.55;100.00;74800.66;5083639;28;20023;-87
2024/03/06 04:37:51;;;;;;;0.20;0.20;;;;;;;9.72;100.00;74820.38;5116815;28;20032;-86
2024/03/06 04:40:22;;;;;;;0.20;0.20;;;;;;;9.84;100.00;74842.97;5102433;28;20019;-87
2024/03/06 04:42:53;;;;;;;0.20;0.20;;;;;;;9.80;100.00;74829.94;5119075;28;20024;-87
2024/03/06 04:45:20;;;;;;;0.20;0.20;;;;;;;9.54;100.00;74802.25;5098112;28;20106;-87
2024/03/06 04:48:01;;;;;;;0.20;0.20;;;;;;;9.63;100.00;74812.97;5124735;28;20043;-86
2024/03/06 04:50:31;;;;;;;0.20;0.20;;;;;;;9.68;100.00;74818.94;5116309;28;20032;-88
2024/03/06 04:53:01;;;;;;;0.20;0.20;;;;;;;9.55;100.00;74800.06;5117793;28;20043;-87
2024/03/06 04:55:30;;;;;;;0.20;0.20;;;;;;;9.73;100.00;74820.97;5120918;28;20087;-87
2024/03/06 04:58:32;;;;;;;0.20;0.20;;;;;;;9.54;100.00;74799.47;5119053;28;20087;-87
2024/03/06 05:01:12;;;;;;;0.20;0.20;;;;;;;9.46;100.00;74789.91;5118343;28;20047;-87
2024/03/06 05:03:49;;;;;;;0.20;0.20;;;;;;;9.75;100.00;74826.72;5138497;28;20027;-87
2024/03/06 05:06:23;;;;;;;0.20;0.20;;;;;;;9.59;100.00;74804.84;5137783;28;20479;-87
2024/03/06 05:08:58;;;;;;;0.20;0.20;;;;;;;9.42;100.00;74785.72;5119360;28;20003;-88
2024/03/06 05:11:36;;;;;;;0.20;0.20;;;;;;;9.50;100.00;74794.69;5136793;28;20043;-87
2024/03/06 05:14:07;;;;;;;0.20;0.20;;;;;;;9.52;100.00;74796.47;5126813;28;20036;-87
2024/03/06 05:17:13;;;;;;;0.20;0.20;;;;;;;9.67;100.00;74817.75;5118078;28;20050;-88
2024/03/06 05:20:07;;;;;;;0.20;0.20;;;;;;;9.38;100.00;74780.97;5105946;28;20078;-88
2024/03/06 05:22:50;;;;;;;0.20;0.20;;;;;;;9.49;100.00;74796.28;5097555;28;20047;-86
2024/03/06 05:25:48;;;;;;;0.20;0.20;;;;;;;9.61;100.00;74812.75;5137556;28;20020;-87
2024/03/06 05:31:42;;;;;;;0.20;0.20;;;;;;;9.63;100.00;74810.22;5136559;28;20092;-87
2024/03/06 05:34:11;;;;;;;0.20;0.20;;;;;;;9.52;100.00;74797.06;5120440;28;20031;-86
2024/03/06 05:36:44;;;;;;;0.20;0.20;;;;;;;9.67;100.00;74811.63;5100932;28;20035;-86
2024/03/06 05:39:32;;;;;;;0.30;0.30;;;;;;;9.41;100.00;74783.94;5109881;28;20024;-86
2024/03/06 05:42:31;;;;;;;0.20;0.20;;;;;;;9.81;100.00;74833.88;5099343;28;20031;-87
2024/03/06 05:45:04;;;;;;;0.20;0.20;;;;;;;9.71;100.00;74819.19;5099580;28;20028;-87
2024/03/06 05:47:35;;;;;;;0.20;0.20;;;;;;;9.78;100.00;74833.03;5097169;28;20095;-86
2024/03/06 05:50:21;;;;;;;0.20;0.20;;;;;;;9.97;100.00;74847.47;5081403;28;20035;-86
2024/03/06 05:52:47;;;;;;;0.20;0.20;;;;;;;10.15;100.00;74870.53;5115854;28;20049;-87
2024/03/06 05:55:19;;;;;;;0.20;0.20;;;;;;;10.10;100.00;74865.13;5097497;28;20028;-87
2024/03/06 05:57:45;;;;;;;0.20;0.20;;;;;;;10.25;100.00;74881.88;5110455;28;20044;-88
2024/03/06 06:00:25;;;;;;;0.20;0.20;;;;;;;10.52;100.00;74914.13;5112341;28;20016;-86
2024/03/06 06:02:52;;;;;;;0.25;0.25;;;;;;;10.13;100.00;74868.72;5114951;28;20031;-88
2024/03/06 06:05:26;;;;;;;0.20;0.20;;;;;;;10.22;100.00;74878.88;5094626;28;20039;-86
2024/03/06 06:08:25;;;;;;;0.20;0.20;;;;;;;10.54;100.00;74918.69;5096213;28;20070;-87
2024/03/06 06:11:34;;;;;;;0.20;0.20;;;;;;;10.34;100.00;74900.94;5129989;28;20034;-87
2024/03/06 06:14:05;;;;;;;0.20;0.20;;;;;;;10.75;100.00;74941.03;5094038;28;20059;-88
2024/03/06 06:16:42;;;;;;;0.20;0.20;;;;;;;10.97;100.00;74966.72;5134389;28;20024;-86
2024/03/06 06:19:08;;;;;;;0.20;0.20;;;;;;;10.85;100.00;74952.97;5122654;27;20073;-88
2024/03/06 06:21:41;;;;;;;0.20;0.20;;;;;;;11.11;100.00;74983.44;5153730;27;20011;-87
2024/03/06 06:24:09;;;;;;;0.20;0.20;;;;;;;11.93;100.00;75082.50;5133900;27;20034;-87
2024/03/06 06:26:37;;;;;;;0.20;0.20;;;;;;;11.72;100.00;75054.59;5152404;27;20035;-87
2024/03/06 06:29:03;;;;;;;0.20;0.20;;;;;;;11.83;100.00;75067.75;5135207;27;20030;-87
2024/03/06 06:31:30;;;;;;;0.20;0.20;;;;;;;11.69;100.00;75051.00;5153337;27;20042;-87
2024/03/06 06:33:58;;;;;;;0.20;0.20;;;;;;;11.58;100.00;75037.84;5153909;27;20046;-87
2024/03/06 06:36:34;;;;;;;0.25;0.25;;;;;;;11.49;100.00;75027.66;5134007;27;20062;-87
2024/03/06 06:39:06;;;;;;;0.20;0.20;;;;;;;11.50;100.00;75032.25;5115985;27;20035;-87
2024/03/06 06:41:32;;;;;;;0.20;0.20;;;;;;;11.55;100.00;75029.91;5105342;28;20035;-86
2024/03/06 06:43:58;;;;;;;0.20;0.20;;;;;;;11.34;100.00;75013.09;5110164;28;20034;-88
2024/03/06 06:46:25;;;;;;;0.20;0.20;;;;;;;11.29;100.00;75007.13;5127397;28;20035;-88
2024/03/06 06:48:51;;;;;;;0.20;0.20;;;;;;;11.55;100.00;75038.22;5124676;28;20028;-86
2024/03/06 06:51:18;;;;;;;0.20;0.20;;;;;;;11.47;100.00;75031.41;5111018;28;20046;-88
2024/03/06 06:53:46;;;;;;;0.20;0.20;;;;;;;12.36;100.00;75127.19;5109978;28;20020;-88
2024/03/06 06:56:12;;;;;;;0.20;0.20;;;;;;;13.73;99.64;75284.78;5109817;28;20024;-87
2024/03/06 06:59:04;;;;;;;0.20;0.20;;;;;;;15.01;92.28;75441.28;5112176;28;20476;-88
2024/03/06 07:01:46;;;;;;;0.20;0.20;;;;;;;15.35;88.02;75475.88;5112329;28;20043;-86
2024/03/06 07:04:30;;;;;;;0.20;0.20;;;;;;;15.97;86.97;75551.19;5098815;28;20020;-87
2024/03/06 07:07:15;;;;;;;0.20;0.20;;;;;;;16.63;81.90;75625.78;5100424;28;20025;-87
2024/03/06 07:10:40;;;;;;;0.20;0.20;;;;;;;17.21;75.86;75696.97;5086670;28;20040;-88
2024/03/06 07:14:16;;;;;;;0.20;0.20;;;;;;;18.10;70.87;75802.03;5116531;28;20070;-87
2024/03/06 07:16:57;;;;;;;0.20;0.20;;;;;;;16.95;70.77;75666.97;5103944;28;20127;-87
2024/03/06 07:19:30;;;;;;;0.20;0.20;;;;;;;16.14;75.11;75571.59;5098149;28;20075;-86
2024/03/06 07:22:08;;;;;;;0.20;0.20;;;;;;;16.44;73.90;75603.56;5132014;28;20054;-86
2024/03/06 07:28:04;;;;;;;0.20;0.20;;;;;;;17.10;71.74;75687.19;5117823;28;20023;-87
2024/03/06 07:31:18;;;;;;;0.20;0.20;;;;;;;17.54;70.10;75733.19;5117762;28;20004;-88
2024/03/06 07:34:39;;;;;;;0.20;0.20;;;;;;;17.47;70.01;75730.97;5117226;28;20028;-87
2024/03/06 07:37:28;;;;;;;0.20;0.20;;;;;;;17.75;66.06;75761.22;5116967;28;20049;-87
2024/03/06 07:40:04;;;;;;;0.20;0.20;;;;;;;16.84;69.75;75650.38;5106561;28;20023;-88
2024/03/06 07:42:35;;;;;;;0.28;0.28;;;;;;;17.05;71.56;75675.59;5095491;28;20016;-88
2024/03/06 07:45:29;;;;;;;0.20;0.20;;;;;;;16.73;72.15;75641.19;5132488;28;20014;-87
2024/03/06 07:47:54;;;;;;;0.20;0.20;;;;;;;16.95;68.83;75669.16;5112912;28;20034;-87
2024/03/06 07:50:23;;;;;;;0.20;0.20;;;;;;;17.27;67.51;75701.97;5113065;28;20091;-87
2024/03/06 07:52:59;;;;;;;0.20;0.20;;;;;;;16.92;68.61;75654.38;5129140;28;20030;-87
2024/03/06 07:55:26;;;;;;;0.20;0.20;;;;;;;16.89;69.80;75659.19;5095200;28;20036;-87
2024/03/06 07:58:21;;;;;;;0.20;0.20;;;;;;;17.23;70.23;75699.97;5106002;28;20032;-87
2024/03/06 08:00:55;;;;;;;0.20;0.20;;;;;;;18.41;65.07;75835.25;5126912;28;20031;-88
2024/03/06 08:03:33;;;;;;;0.20;0.20;;;;;;;17.61;65.28;75741.56;5090791;28;20024;-87
2024/03/06 08:06:15;;;;;;;0.20;0.20;;;;;;;18.92;61.36;75895.34;5059688;28;20104;-88
2024/03/06 08:09:02;;;;;;;0.20;0.20;;;;;;;18.43;62.75;75837.63;5062683;28;20033;-87
2024/03/06 08:12:10;;;;;;;0.20;0.20;;;;;;;18.04;66.98;75792.03;5076852;28;20025;-88
2024/03/06 08:14:40;;;;;;;0.20;0.20;;;;;;;17.63;67.43;75744.00;5041546;28;20037;-87
2024/03/06 08:17:12;;;;;;;0.20;0.20;;;;;;;17.63;68.05;75749.59;5067564;28;20040;-86
2024/03/06 08:19:41;;;;;;;0.20;0.20;;;;;;;17.01;70.63;75671.38;5074148;28;20123;-87
2024/03/06 08:22:21;;;;;;;0.20;0.20;;;;;;;17.71;70.27;75756.38;5073484;28;20049;-87
2024/03/06 08:24:53;;;;;;;0.20;0.20;;;;;;;17.65;68.33;75751.38;5053580;28;20024;-88
2024/03/06 08:27:19;;;;;;;0.20;0.20;;;;;;;18.15;68.23;75805.22;5052556;28;20041;-87
2024/03/06 08:29:54;;;;;;;0.20;0.20;;;;;;;17.67;68.98;75754.38;5074531;28;20025;-88
2024/03/06 08:33:00;;;;;;;0.20;0.20;;;;;;;18.73;66.26;75873.09;5072910;28;20045;-87
2024/03/06 08:35:55;;;;;;;0.20;0.20;;;;;;;18.82;64.36;75883.91;5074525;28;20096;-86
2024/03/06 08:38:48;;;;;;;0.20;0.20;;;;;;;17.04;73.35;75674.38;5076674;28;20040;-87
2024/03/06 08:41:34;;;;;;;0.20;0.20;;;;;;;16.33;80.75;75593.78;5057379;28;20020;-87
2024/03/06 08:44:02;;;;;;;0.20;0.20;;;;;;;16.34;82.33;75594.38;5073525;28;20037;-88
2024/03/06 08:46:43;;;;;;;0.20;0.20;;;;;;;16.63;80.42;75625.78;5074537;28;20029;-88
2024/03/06 08:49:14;;;;;;;0.20;0.20;;;;;;;16.01;84.04;75558.78;5093722;28;20032;-88
2024/03/06 08:51:43;;;;;;;0.20;0.20;;;;;;;16.87;78.15;75654.56;5093108;28;20031;-87
2024/03/06 08:54:16;;;;;;;0.20;0.20;;;;;;;16.69;77.39;75633.56;5093760;28;20044;-86
2024/03/06 08:57:04;;;;;;;0.20;0.20;;;;;;;16.39;79.79;75603.16;5095596;28;20040;-88
2024/03/06 08:59:51;;;;;;;0.20;0.20;;;;;;;16.86;79.11;75655.56;5077858;28;20009;-87
2024/03/06 09:02:21;;;;;;;0.20;0.20;;;;;;;16.01;79.38;75550.41;5129987;27;20046;-88
2024/03/06 09:04:59;;;;;;;0.20;0.20;;;;;;;15.49;80.66;75497.63;5152821;27;20046;-86
2024/03/06 09:07:37;;;;;;;0.20;0.20;;;;;;;15.90;79.36;75537.22;5149451;27;20112;-87
2024/03/06 09:10:19;;;;;;;0.20;0.20;;;;;;;16.53;74.40;75614.38;5138381;27;20019;-88
2024/03/06 09:13:00;;;;;;;0.20;0.20;;;;;;;17.57;71.07;75736.78;5139102;27;20034;-88
2024/03/06 09:15:41;;;;;;;0.20;0.20;;;;;;;17.79;71.40;75762.63;5156699;27;20023;-87
2024/03/06 09:18:33;;;;;;;0.20;0.20;;;;;;;19.01;65.81;75906.72;5127856;28;20039;-87
2024/03/06 09:21:24;;;;;;;0.20;0.20;;;;;;;18.59;64.13;75859.69;5116942;28;20111;-87
2024/03/06 09:24:23;;;;;;;0.20;0.20;;;;;;;19.37;60.52;75948.78;5115677;28;20096;-87
2024/03/06 09:27:16;;;;;;;0.20;0.20;;;;;;;19.69;57.98;75986.66;5059329;28;20072;-86
2024/03/06 09:30:44;;;;;;;0.20;0.20;;;;;;;19.02;56.81;75907.34;5013885;28;20086;-87
2024/03/06 09:34:12;;;;;;;0.20;0.20;;;;;;;19.59;55.77;75971.84;5039026;28;20017;-87
2024/03/06 09:40:25;;;;;;;0.20;0.20;;;;;;;21.69;46.32;76222.44;4982709;28;20415;-83
2024/03/06 09:43:06;;;;;;;0.20;0.20;;;;;;;20.26;47.48;76053.38;5011247;28;20061;-84
2024/03/06 09:46:12;;;;;;;0.20;0.20;;;;;;;20.42;46.27;76070.41;5036806;28;20128;-85
2024/03/06 09:49:27;;;;;;;0.10;0.10;;;;;;;19.38;48.62;75950.59;4980587;28;20071;-85
2024/03/06 09:52:09;;;;;;;0.20;0.20;;;;;;;18.82;54.08;75883.91;4964471;28;20118;-84
2024/03/06 09:54:51;;;;;;;;;;;;;;;17.97;62.68;75778.03;4980460;28;20026;-86
2024/03/06 09:57:21;;;;;;;0.20;0.20;;;;;;;18.74;59.17;75874.91;4996530;28;19947;-86
2024/03/06 09:59:53;;;;;;;0.20;0.20;;;;;;;18.87;58.27;75889.31;5022428;28;20120;-86
2024/03/06 10:02:53;;;;;;;0.20;0.20;;;;;;;19.91;55.81;76009.09;5078788;28;20092;-86
2024/03/06 10:05:44;;;;;;;0.20;0.20;;;;;;;19.61;54.55;75977.06;5078862;28;20029;-86
2024/03/06 10:08:26;;;;;;;0.20;0.20;;;;;;;19.72;53.06;75990.28;5080445;28;20034;-86
2024/03/06 10:11:13;;;;;;;0.20;0.20;;;;;;;20.11;54.07;76030.34;5044734;28;20116;-86
2024/03/06 10:13:46;;;;;;;0.20;0.20;;;;;;;19.47;54.57;75960.22;5042964;28;20077;-86
2024/03/06 10:16:24;;;;;;;0.20;0.20;;;;;;;18.96;56.83;75900.75;5040419;28;20049;-86
2024/03/06 10:19:34;;;;;;;0.20;0.20;;;;;;;19.50;53.75;75970.03;5055611;28;20040;-85
2024/03/06 10:26:08;;;;;;;0.20;0.20;;;;;;;21.14;48.64;76158.03;5036041;28;20046;-85
2024/03/06 10:29:14;;;;;;;0.20;0.20;;;;;;;20.28;49.62;76056.38;5038466;28;20025;-86
2024/03/06 10:32:44;;;;;;;0.20;0.20;;;;;;;20.67;48.86;76102.13;5038633;28;20037;-86
2024/03/06 10:35:30;;;;;;;0.20;0.20;;;;;;;20.47;48.04;76075.84;5032015;28;20174;-85
2024/03/06 10:37:56;;;;;;;0.20;0.20;;;;;;;20.66;48.30;76098.69;5028565;28;20026;-86
2024/03/06 10:40:23;;;;;;;0.20;0.20;;;;;;;20.44;47.64;76075.03;5032680;28;20034;-85
2024/03/06 10:43:05;;;;;;;0.20;0.20;;;;;;;20.59;46.88;76086.88;5017922;28;20056;-86
2024/03/06 10:45:50;;;;;;;0.20;0.20;;;;;;;20.05;47.12;76034.34;5034894;28;20025;-85
2024/03/06 10:48:18;;;;;;;0.20;0.20;;;;;;;19.92;48.61;76015.91;5033330;28;20129;-85
2024/03/06 10:50:50;;;;;;;0.15;0.15;;;;;;;19.67;48.62;75989.88;5034337;28;20076;-85
2024/03/06 10:53:17;;;;;;;0.20;0.20;;;;;;;19.25;49.64;75934.97;5013981;28;20022;-85
2024/03/06 10:55:44;;;;;;;0.20;0.20;;;;;;;19.54;48.63;75971.41;5011061;28;20406;-85
2024/03/06 10:58:12;;;;;;;0.20;0.20;;;;;;;19.74;48.16;75994.88;5029012;28;20041;-88
2024/03/06 11:00:48;;;;;;;0.20;0.20;;;;;;;18.91;49.96;75891.31;5031591;28;20033;-86
2024/03/06 11:03:15;;;;;;;0.20;0.20;;;;;;;18.55;50.60;75852.06;5029832;28;20022;-86
2024/03/06 11:05:45;;;;;;;0.20;0.20;;;;;;;19.11;49.28;75918.75;5030040;28;20097;-84
2024/03/06 11:08:13;;;;;;;0.20;0.20;;;;;;;19.62;47.47;75978.25;5014626;28;20034;-86
2024/03/06 11:10:43;;;;;;;0.20;0.20;;;;;;;19.13;48.48;75917.75;5027627;28;20030;-86
2024/03/06 11:13:23;;;;;;;0.20;0.20;;;;;;;19.40;47.92;75951.81;5007986;28;20069;-86
2024/03/06 11:15:56;;;;;;;0.20;0.20;;;;;;;19.63;46.42;75982.25;5026585;28;20101;-87
2024/03/06 11:19:06;;;;;;;0.20;0.20;;;;;;;19.51;45.91;75962.22;5008343;28;20036;-84
2024/03/06 11:21:32;;;;;;;0.20;0.20;;;;;;;18.97;45.08;75901.94;5014723;28;20041;-86
2024/03/06 11:24:20;;;;;;;0.20;0.20;;;;;;;18.86;44.86;75888.13;5023004;28;20041;-86
2024/03/06 11:26:56;;;;;;;0.20;0.20;;;;;;;19.09;43.93;75915.75;5025883;28;20079;-86
2024/03/06 11:29:22;;;;;;;0.20;0.20;;;;;;;18.97;43.11;75901.94;5043198;28;20032;-87
2024/03/06 11:32:00;;;;;;;0.20;0.20;;;;;;;19.09;43.98;75912.94;5048915;28;20026;-87
2024/03/06 11:34:33;;;;;;;0.20;0.20;;;;;;;19.03;43.78;75911.34;5049104;28;20040;-85
2024/03/06 11:37:13;;;;;;;0.20;0.20;;;;;;;18.43;44.01;75838.25;5045239;28;20286;-87
2024/03/06 11:39:52;;;;;;;0.20;0.20;;;;;;;18.40;43.04;75840.25;5042254;28;20364;-87
2024/03/06 11:42:35;;;;;;;0.20;0.20;;;;;;;18.74;41.82;75874.31;5051673;28;20040;-86
2024/03/06 11:45:21;;;;;;;0.20;0.20;;;;;;;19.00;40.72;75902.72;5066445;28;20039;-87
2024/03/06 11:48:03;;;;;;;0.20;0.20;;;;;;;18.93;39.44;75902.13;5033484;28;20047;-86
2024/03/06 11:50:37;;;;;;;0.20;0.20;;;;;;;18.87;40.66;75889.31;5048737;28;20103;-86
2024/03/06 11:53:06;;;;;;;0.20;0.20;;;;;;;18.55;41.75;75852.06;5052865;28;20086;-86
2024/03/06 11:55:32;;;;;;;0.20;0.20;;;;;;;17.65;43.73;75745.78;5035943;28;20248;-88
2024/03/06 11:58:00;;;;;;;0.20;0.20;;;;;;;17.51;44.45;75730.16;5051326;28;20160;-88
2024/03/06 12:00:30;;;;;;;0.20;0.20;;;;;;;18.01;44.21;75785.63;5050592;28;20025;-88
2024/03/06 12:03:08;;;;;;;0.20;0.20;;;;;;;17.73;44.35;75756.00;5035934;28;20036;-88
2024/03/06 12:05:37;;;;;;;0.20;0.20;;;;;;;17.90;43.56;75773.03;5017324;28;20121;-86
2024/03/06 12:08:07;;;;;;;0.20;0.20;;;;;;;18.32;43.05;75825.66;5034266;28;20038;-87
2024/03/06 12:10:38;;;;;;;0.20;0.20;;;;;;;17.99;43.56;75788.81;5034223;28;20057;-87
2024/03/06 12:13:10;;;;;;;0.20;0.20;;;;;;;18.21;43.26;75806.22;5032303;28;20028;-87
2024/03/06 12:15:35;;;;;;;0.20;0.20;;;;;;;18.27;43.14;75819.06;5046442;28;20029;-87
2024/03/06 12:18:03;;;;;;;0.20;0.20;;;;;;;18.21;43.10;75809.63;5016411;28;20034;-87
2024/03/06 12:20:33;;;;;;;0.20;0.20;;;;;;;17.74;43.45;75760.00;5041463;28;20022;-86
2024/03/06 12:22:59;;;;;;;0.20;0.20;;;;;;;18.23;42.80;75817.63;5047842;28;20063;-87
2024/03/06 12:25:26;;;;;;;0.20;0.20;;;;;;;17.92;42.94;75778.22;5054971;28;20041;-86
2024/03/06 12:27:54;;;;;;;0.20;0.20;;;;;;;18.44;42.99;75839.47;5054868;28;20048;-87
2024/03/06 12:30:22;;;;;;;0.20;0.20;;;;;;;18.03;41.79;75791.41;5041143;28;20022;-85
2024/03/06 12:33:04;;;;;;;0.20;0.20;;;;;;;18.20;41.04;75808.44;5031423;28;20040;-86
2024/03/06 12:35:31;;;;;;;0.20;0.20;;;;;;;18.16;40.26;75805.81;5034828;28;20033;-85
2024/03/06 12:38:14;;;;;;;0.20;0.20;;;;;;;18.40;40.20;75831.25;5053380;28;20101;-85
2024/03/06 12:40:41;;;;;;;0.20;0.20;;;;;;;18.21;38.85;75812.44;5032402;28;20089;-86
2024/03/06 12:43:09;;;;;;;0.20;0.20;;;;;;;18.40;37.81;75829.06;5047390;28;20076;-86
2024/03/06 12:45:35;;;;;;;0.20;0.20;;;;;;;18.13;37.97;75802.22;5047085;28;20022;-85
2024/03/06 12:48:03;;;;;;;0.20;0.20;;;;;;;18.09;39.38;75798.03;5026072;28;20033;-85
2024/03/06 12:50:29;;;;;;;0.20;0.20;;;;;;;17.54;39.63;75735.97;5028916;28;20053;-85
2024/03/06 12:52:57;;;;;;;0.20;0.20;;;;;;;17.43;40.52;75719.97;5046136;28;20040;-87
2024/03/06 12:55:23;;;;;;;0.20;0.20;;;;;;;16.69;41.74;75630.78;5049796;28;20064;-87